createdAt,value
2017-09-29T00:00:25.073Z,76.60
2017-09-29T00:03:05.063Z,77.40
2017-09-29T00:05:33.897Z,76.90
2017-09-29T00:08:03.633Z,77.00
2017-09-29T00:10:33.583Z,77.00
2017-09-29T00:13:02.486Z,77.10
2017-09-29T00:15:31.331Z,77.20
2017-09-29T00:18:00.178Z,77.00
2017-09-29T00:20:29.029Z,77.10
2017-09-29T00:22:57.866Z,77.00
2017-09-29T00:25:27.484Z,77.70
2017-09-29T00:27:57.090Z,77.10
2017-09-29T00:30:26.700Z,77.20
2017-09-29T00:32:56.314Z,77.30
2017-09-29T00:35:25.582Z,77.10
2017-09-29T00:37:54.431Z,77.00
2017-09-29T00:40:23.093Z,76.90
2017-09-29T00:42:52.776Z,77.10
2017-09-29T00:45:21.643Z,77.10
2017-09-29T00:47:50.138Z,77.20
2017-09-29T00:50:18.987Z,77.20
2017-09-29T00:52:47.581Z,77.40
2017-09-29T00:55:16.991Z,77.50
2017-09-29T00:57:45.843Z,77.40
2017-09-29T01:00:15.458Z,77.40
2017-09-29T01:02:45.088Z,77.30
2017-09-29T01:05:13.935Z,77.30
2017-09-29T01:07:42.782Z,77.40
2017-09-29T01:10:11.643Z,77.30
2017-09-29T01:12:41.255Z,77.50
2017-09-29T01:15:10.169Z,78.00
2017-09-29T01:17:38.674Z,78.00
2017-09-29T01:20:06.825Z,77.70
2017-09-29T01:22:36.354Z,77.60
2017-09-29T01:25:04.863Z,77.50
2017-09-29T01:27:34.618Z,77.80
2017-09-29T01:30:03.111Z,77.90
2017-09-29T01:32:31.954Z,78.10
2017-09-29T01:35:00.891Z,78.30
2017-09-29T01:37:29.053Z,78.20
2017-09-29T01:39:57.549Z,78.30
2017-09-29T01:42:26.048Z,78.30
2017-09-29T01:44:54.016Z,78.70
2017-09-29T01:47:22.524Z,78.80
2017-09-29T01:49:51.021Z,78.70
2017-09-29T01:52:19.175Z,78.50
2017-09-29T01:54:47.332Z,78.70
2017-09-29T01:57:15.495Z,78.80
2017-09-29T01:59:43.654Z,78.80
2017-09-29T02:02:11.804Z,78.80
2017-09-29T02:04:40.721Z,78.60
2017-09-29T02:07:08.871Z,78.50
2017-09-29T02:09:37.781Z,78.30
2017-09-29T02:12:05.941Z,78.20
2017-09-29T02:14:34.858Z,78.20
2017-09-29T02:17:02.829Z,78.20
2017-09-29T02:19:31.754Z,78.10
2017-09-29T02:22:00.890Z,78.00
2017-09-29T02:24:30.629Z,78.00
2017-09-29T02:26:58.793Z,77.90
2017-09-29T02:29:26.954Z,77.90
2017-09-29T02:31:56.675Z,77.90
2017-09-29T02:34:24.857Z,77.90
2017-09-29T02:36:53.011Z,77.80
2017-09-29T02:39:22.614Z,77.90
2017-09-29T02:41:51.544Z,77.90
2017-09-29T02:44:19.693Z,77.90
2017-09-29T02:46:48.602Z,77.90
2017-09-29T02:49:17.125Z,77.90
2017-09-29T02:51:45.279Z,77.90
2017-09-29T02:54:13.444Z,77.80
2017-09-29T02:56:48.152Z,77.90
2017-09-29T02:59:19.282Z,77.90
2017-09-29T03:01:52.358Z,77.90
2017-09-29T03:04:25.718Z,77.80
2017-09-29T03:06:54.212Z,78.00
2017-09-29T03:09:22.535Z,78.10
2017-09-29T03:11:52.152Z,78.30
2017-09-29T03:14:21.418Z,78.30
2017-09-29T03:16:50.249Z,78.20
2017-09-29T03:19:19.094Z,78.20
2017-09-29T03:21:47.934Z,78.30
2017-09-29T03:24:16.785Z,78.30
2017-09-29T03:26:45.625Z,78.10
2017-09-29T03:29:14.462Z,77.70
2017-09-29T03:31:43.303Z,78.20
2017-09-29T03:34:12.524Z,78.10
2017-09-29T03:36:42.177Z,78.20
2017-09-29T03:39:11.010Z,78.10
2017-09-29T03:41:39.862Z,78.10
2017-09-29T03:44:09.529Z,78.20
2017-09-29T03:46:38.607Z,78.10
2017-09-29T03:49:08.382Z,78.10
2017-09-29T03:51:43.578Z,78.10
2017-09-29T03:54:15.417Z,78.10
2017-09-29T03:56:46.994Z,78.00
2017-09-29T03:59:22.234Z,78.00
2017-09-29T04:01:51.073Z,77.90
2017-09-29T04:04:20.670Z,77.70
2017-09-29T04:06:50.273Z,77.70
2017-09-29T04:09:20.731Z,77.60
2017-09-29T04:11:49.574Z,77.60
2017-09-29T04:14:18.082Z,77.60
2017-09-29T04:16:46.587Z,77.60
2017-09-29T04:19:15.447Z,77.60
2017-09-29T04:21:44.346Z,77.60
2017-09-29T04:24:13.628Z,77.60
2017-09-29T04:26:42.481Z,77.50
2017-09-29T04:29:11.317Z,77.40
2017-09-29T04:31:41.403Z,77.50
2017-09-29T04:34:10.251Z,77.50
2017-09-29T04:36:39.102Z,77.50
2017-09-29T04:39:07.961Z,77.50
2017-09-29T04:41:36.814Z,77.60
2017-09-29T04:44:06.418Z,77.70
2017-09-29T04:46:36.026Z,77.80
2017-09-29T04:49:05.638Z,77.90
2017-09-29T04:51:35.738Z,77.90
2017-09-29T04:54:05.105Z,77.90
2017-09-29T04:56:33.774Z,77.40
2017-09-29T04:59:02.628Z,77.80
2017-09-29T05:01:32.922Z,77.90
2017-09-29T05:04:02.886Z,77.80
2017-09-29T05:06:33.030Z,77.90
2017-09-29T05:09:02.534Z,77.80
2017-09-29T05:11:31.654Z,77.80
2017-09-29T05:14:00.502Z,77.80
2017-09-29T05:16:30.114Z,77.80
2017-09-29T05:18:59.258Z,77.80
2017-09-29T05:21:27.733Z,77.90
2017-09-29T05:23:56.574Z,77.90
2017-09-29T05:26:26.183Z,77.70
2017-09-29T05:28:55.794Z,77.70
2017-09-29T05:31:25.417Z,77.60
2017-09-29T05:33:54.262Z,77.60
2017-09-29T05:36:23.113Z,77.40
2017-09-29T05:38:51.957Z,77.40
2017-09-29T05:41:21.643Z,77.30
2017-09-29T05:43:50.505Z,77.20
2017-09-29T05:46:19.050Z,77.20
2017-09-29T05:48:49.122Z,77.20
2017-09-29T05:51:20.146Z,77.00
2017-09-29T05:53:49.028Z,76.90
2017-09-29T05:56:17.875Z,76.70
2017-09-29T05:58:47.722Z,76.70
2017-09-29T06:01:18.365Z,76.60
2017-09-29T06:03:48.791Z,76.60
2017-09-29T06:06:18.405Z,76.60
2017-09-29T06:08:46.990Z,76.60
2017-09-29T06:11:19.108Z,76.50
2017-09-29T06:13:50.410Z,76.40
2017-09-29T06:16:19.014Z,76.40
2017-09-29T06:18:47.887Z,76.40
2017-09-29T06:21:17.872Z,76.40
2017-09-29T06:23:50.713Z,76.20
2017-09-29T06:26:19.562Z,76.20
2017-09-29T06:28:49.137Z,75.90
2017-09-29T06:31:20.542Z,75.60
2017-09-29T06:33:49.666Z,75.40
2017-09-29T06:36:18.510Z,75.00
2017-09-29T06:38:48.123Z,74.40
2017-09-29T06:41:17.741Z,74.10
2017-09-29T06:43:46.594Z,74.10
2017-09-29T06:46:15.437Z,73.70
2017-09-29T06:48:44.289Z,73.30
2017-09-29T06:51:13.901Z,72.70
2017-09-29T06:53:42.789Z,72.80
2017-09-29T06:56:12.714Z,73.20
2017-09-29T06:58:43.299Z,71.90
2017-09-29T07:01:12.207Z,71.80
2017-09-29T07:03:41.054Z,71.60
2017-09-29T07:06:09.905Z,71.50
2017-09-29T07:08:39.564Z,70.80
2017-09-29T07:11:08.650Z,70.60
2017-09-29T07:13:37.498Z,70.20
2017-09-29T07:16:06.422Z,69.90
2017-09-29T07:18:35.289Z,69.80
2017-09-29T07:21:04.583Z,69.10
2017-09-29T07:23:33.125Z,69.10
2017-09-29T07:26:04.401Z,69.00
2017-09-29T07:28:38.783Z,68.50
2017-09-29T07:31:12.965Z,68.30
2017-09-29T07:33:42.574Z,67.50
2017-09-29T07:36:12.181Z,67.10
2017-09-29T07:38:41.040Z,67.00
2017-09-29T07:41:09.529Z,66.80
2017-09-29T07:43:38.362Z,66.60
2017-09-29T07:46:06.904Z,66.20
2017-09-29T07:48:35.767Z,65.90
2017-09-29T07:51:04.606Z,65.60
2017-09-29T07:53:34.220Z,65.00
2017-09-29T07:56:02.737Z,65.00
2017-09-29T07:58:32.360Z,64.00
2017-09-29T08:01:01.212Z,64.00
2017-09-29T08:03:30.072Z,63.80
2017-09-29T08:05:59.691Z,63.00
2017-09-29T08:08:29.306Z,62.90
2017-09-29T08:10:58.951Z,62.90
2017-09-29T08:13:27.805Z,62.90
2017-09-29T08:15:57.423Z,62.00
2017-09-29T08:18:27.176Z,61.90
2017-09-29T08:20:55.711Z,61.70
2017-09-29T08:23:26.126Z,61.20
2017-09-29T08:25:56.307Z,61.20
2017-09-29T08:28:25.177Z,61.00
2017-09-29T08:30:53.933Z,60.80
2017-09-29T08:33:22.782Z,60.60
2017-09-29T08:35:52.355Z,60.40
2017-09-29T08:38:21.221Z,60.10
2017-09-29T08:40:50.069Z,59.90
2017-09-29T08:43:18.933Z,59.70
2017-09-29T08:45:47.814Z,59.50
2017-09-29T08:48:17.434Z,58.70
2017-09-29T08:50:46.476Z,58.70
2017-09-29T08:53:15.342Z,58.70
2017-09-29T08:55:44.207Z,58.40
2017-09-29T08:58:13.067Z,58.30
2017-09-29T09:00:42.684Z,57.60
2017-09-29T09:03:26.165Z,57.50
2017-09-29T09:05:55.013Z,57.50
2017-09-29T09:08:27.401Z,57.40
2017-09-29T09:10:56.301Z,56.90
2017-09-29T09:13:25.170Z,56.50
2017-09-29T09:15:54.804Z,56.10
2017-09-29T09:18:24.485Z,56.00
2017-09-29T09:20:54.373Z,55.60
2017-09-29T09:23:23.253Z,55.40
2017-09-29T09:25:52.187Z,55.20
2017-09-29T09:28:24.518Z,54.80
2017-09-29T09:30:54.769Z,54.50
2017-09-29T09:33:32.559Z,54.40
2017-09-29T09:36:16.783Z,53.90
2017-09-29T09:38:45.686Z,54.40
2017-09-29T09:41:14.626Z,53.50
2017-09-29T09:43:45.282Z,53.20
2017-09-29T09:46:37.056Z,52.80
2017-09-29T09:55:14.670Z,52.20
2017-09-29T09:57:43.580Z,52.10
2017-09-29T10:00:14.646Z,51.60
2017-09-29T10:02:45.154Z,51.30
2017-09-29T10:07:56.685Z,50.90
2017-09-29T10:10:26.620Z,50.40
2017-09-29T10:15:51.878Z,50.20
2017-09-29T10:18:20.757Z,50.20
2017-09-29T10:23:42.097Z,49.40
2017-09-29T10:26:10.956Z,49.30
2017-09-29T10:46:22.838Z,48.00
2017-09-29T11:05:54.842Z,46.60
2017-09-29T11:08:29.532Z,46.30
2017-09-29T11:13:37.093Z,46.10
2017-09-29T11:16:07.270Z,45.80
2017-09-29T11:18:37.029Z,45.40
2017-09-29T11:21:06.692Z,45.30
2017-09-29T11:23:36.739Z,45.30
2017-09-29T11:26:07.138Z,45.40
2017-09-29T11:28:36.019Z,45.10
2017-09-29T11:31:05.698Z,44.90
2017-09-29T11:33:34.799Z,44.70
2017-09-29T11:36:04.902Z,44.50
2017-09-29T11:38:34.594Z,44.60
2017-09-29T11:43:39.129Z,44.20
2017-09-29T11:46:08.871Z,43.80
2017-09-29T11:48:38.627Z,43.50
2017-09-29T11:51:08.179Z,43.50
2017-09-29T11:53:37.515Z,43.30
2017-09-29T11:56:06.274Z,43.10
2017-09-29T11:58:34.866Z,43.20
2017-09-29T12:01:05.396Z,43.10
2017-09-29T12:03:34.334Z,42.90
2017-09-29T12:06:03.304Z,42.90
2017-09-29T12:08:32.722Z,42.80
2017-09-29T12:11:01.305Z,42.60
2017-09-29T12:13:32.226Z,42.50
2017-09-29T12:16:05.809Z,42.50
2017-09-29T12:18:39.497Z,42.50
2017-09-29T12:21:08.085Z,42.30
2017-09-29T12:23:37.529Z,42.30
2017-09-29T12:26:06.867Z,42.10
2017-09-29T12:28:37.626Z,42.00
2017-09-29T12:31:06.196Z,41.90
2017-09-29T12:33:35.045Z,41.70
2017-09-29T12:36:03.657Z,42.20
2017-09-29T12:38:32.235Z,41.10
2017-09-29T12:41:00.523Z,40.90
2017-09-29T12:43:30.524Z,40.90
2017-09-29T12:45:59.102Z,40.80
2017-09-29T12:48:27.927Z,40.50
2017-09-29T12:50:56.738Z,40.90
2017-09-29T12:53:25.327Z,41.00
2017-09-29T12:55:54.924Z,41.00
2017-09-29T13:00:58.269Z,40.80
2017-09-29T13:03:26.862Z,40.90
2017-09-29T13:06:01.994Z,40.80
2017-09-29T13:08:32.356Z,41.10
2017-09-29T13:11:01.946Z,40.40
2017-09-29T13:13:30.537Z,40.20
2017-09-29T13:15:59.586Z,40.20
2017-09-29T13:18:30.247Z,40.00
2017-09-29T13:20:58.841Z,40.00
2017-09-29T13:23:27.421Z,39.90
2017-09-29T13:25:55.999Z,39.80
2017-09-29T13:28:24.593Z,39.50
2017-09-29T13:30:53.336Z,39.40
2017-09-29T13:33:26.677Z,39.20
2017-09-29T13:35:55.262Z,38.90
2017-09-29T13:38:23.847Z,39.00
2017-09-29T13:40:52.417Z,38.90
2017-09-29T13:43:20.994Z,38.80
2017-09-29T13:45:49.561Z,38.70
2017-09-29T13:48:19.070Z,38.90
2017-09-29T13:50:47.650Z,39.00
2017-09-29T13:53:16.261Z,38.90
2017-09-29T13:55:44.839Z,38.70
2017-09-29T13:58:14.378Z,38.80
2017-09-29T14:00:43.871Z,38.40
2017-09-29T14:03:15.377Z,38.30
2017-09-29T14:05:43.986Z,38.50
2017-09-29T14:08:12.559Z,38.60
2017-09-29T14:10:41.121Z,38.60
2017-09-29T14:13:09.698Z,38.80
2017-09-29T14:15:39.967Z,38.80
2017-09-29T14:18:09.267Z,38.80
2017-09-29T14:20:37.841Z,38.70
2017-09-29T14:23:06.417Z,38.70
2017-09-29T14:25:34.982Z,38.50
2017-09-29T14:28:04.295Z,38.60
2017-09-29T14:30:32.861Z,38.30
2017-09-29T14:33:03.224Z,38.30
2017-09-29T14:35:31.801Z,38.40
2017-09-29T14:38:01.102Z,38.30
2017-09-29T14:40:30.650Z,38.30
2017-09-29T14:43:00.022Z,38.30
2017-09-29T14:45:28.589Z,38.20
2017-09-29T14:47:57.169Z,37.90
2017-09-29T14:50:25.789Z,38.00
2017-09-29T14:52:54.353Z,38.20
2017-09-29T14:55:22.925Z,38.30
2017-09-29T14:57:51.514Z,38.40
2017-09-29T15:00:24.392Z,38.50
2017-09-29T15:02:57.837Z,38.20
2017-09-29T15:05:26.422Z,38.10
2017-09-29T15:07:55.011Z,37.70
2017-09-29T15:10:23.595Z,37.70
2017-09-29T15:12:51.952Z,37.90
2017-09-29T15:15:20.559Z,37.70
2017-09-29T15:17:49.129Z,37.30
2017-09-29T15:20:18.506Z,37.10
2017-09-29T15:22:48.917Z,36.50
2017-09-29T15:25:17.758Z,36.50
2017-09-29T15:27:48.351Z,36.40
2017-09-29T15:30:18.217Z,36.40
2017-09-29T15:32:47.073Z,36.50
2017-09-29T15:35:15.919Z,36.50
2017-09-29T15:37:45.270Z,37.10
2017-09-29T15:40:14.133Z,37.10
2017-09-29T15:42:43.749Z,38.70
2017-09-29T15:45:12.383Z,38.70
2017-09-29T15:47:40.969Z,39.60
2017-09-29T15:50:09.813Z,40.10
2017-09-29T15:52:39.429Z,41.30
2017-09-29T15:55:08.266Z,41.30
2017-09-29T15:57:37.117Z,41.70
2017-09-29T16:00:05.963Z,41.90
2017-09-29T16:02:34.819Z,42.30
2017-09-29T16:05:03.694Z,42.70
2017-09-29T16:07:32.537Z,43.10
2017-09-29T16:10:01.403Z,43.70
2017-09-29T16:12:30.304Z,44.10
2017-09-29T16:14:59.162Z,44.40
2017-09-29T16:17:28.005Z,44.60
2017-09-29T16:19:56.918Z,45.00
2017-09-29T16:22:26.526Z,45.60
2017-09-29T16:24:56.442Z,46.10
2017-09-29T16:27:25.946Z,46.20
2017-09-29T16:29:55.566Z,46.60
2017-09-29T16:32:25.213Z,47.00
2017-09-29T16:34:54.060Z,47.00
2017-09-29T16:37:23.676Z,47.60
2017-09-29T16:39:53.284Z,47.70
2017-09-29T16:42:22.898Z,48.00
2017-09-29T16:44:52.509Z,48.10
2017-09-29T16:47:22.148Z,48.40
2017-09-29T16:49:51.008Z,48.30
2017-09-29T16:52:20.612Z,49.60
2017-09-29T16:54:50.262Z,49.20
2017-09-29T16:57:19.111Z,49.20
2017-09-29T16:59:48.722Z,49.80
2017-09-29T17:02:18.869Z,50.00
2017-09-29T17:04:48.534Z,49.90
2017-09-29T17:07:18.155Z,50.50
2017-09-29T17:09:47.790Z,50.90
2017-09-29T17:12:16.650Z,50.90
2017-09-29T17:14:45.542Z,51.20
2017-09-29T17:17:14.579Z,51.40
2017-09-29T17:19:43.438Z,51.70
2017-09-29T17:22:12.346Z,52.00
2017-09-29T17:24:41.207Z,52.30
2017-09-29T17:27:10.786Z,52.60
2017-09-29T17:29:39.635Z,52.80
2017-09-29T17:32:08.498Z,52.90
2017-09-29T17:34:38.157Z,53.10
2017-09-29T17:37:07.625Z,53.90
2017-09-29T17:39:36.502Z,53.50
2017-09-29T17:42:05.341Z,53.60
2017-09-29T17:44:34.200Z,54.50
2017-09-29T17:47:03.067Z,54.00
2017-09-29T17:49:31.924Z,54.20
2017-09-29T17:52:00.773Z,54.30
2017-09-29T17:54:30.386Z,54.70
2017-09-29T17:57:00.286Z,54.80
2017-09-29T17:59:29.903Z,55.10
2017-09-29T18:01:59.329Z,55.50
2017-09-29T18:04:28.178Z,55.40
2017-09-29T18:06:57.041Z,55.70
2017-09-29T18:09:25.910Z,55.90
2017-09-29T18:11:54.757Z,56.10
2017-09-29T18:14:25.818Z,56.40
2017-09-29T18:16:55.422Z,56.70
2017-09-29T18:19:25.155Z,56.90
2017-09-29T18:21:53.997Z,56.80
2017-09-29T18:24:23.315Z,57.00
2017-09-29T18:26:52.925Z,57.40
2017-09-29T18:29:21.769Z,57.90
2017-09-29T18:31:50.621Z,57.50
2017-09-29T18:34:19.495Z,57.70
2017-09-29T18:36:48.330Z,58.00
2017-09-29T18:39:19.485Z,58.10
2017-09-29T18:44:45.060Z,58.60
2017-09-29T18:47:14.636Z,58.30
2017-09-29T18:49:43.499Z,58.40
2017-09-29T18:52:12.338Z,58.50
2017-09-29T18:54:41.196Z,58.80
2017-09-29T18:57:10.051Z,58.90
2017-09-29T18:59:39.475Z,59.20
2017-09-29T19:02:08.141Z,59.00
2017-09-29T19:04:37.759Z,59.40
2017-09-29T19:07:07.176Z,59.40
2017-09-29T19:09:36.071Z,59.50
2017-09-29T19:12:06.558Z,59.60
2017-09-29T19:14:35.402Z,59.60
2017-09-29T19:17:04.279Z,59.70
2017-09-29T19:19:33.147Z,59.80
2017-09-29T19:22:02.757Z,59.90
2017-09-29T19:24:32.944Z,60.10
2017-09-29T19:27:02.975Z,60.00
2017-09-29T19:29:31.822Z,60.10
2017-09-29T19:32:00.679Z,60.10
2017-09-29T19:34:31.025Z,60.50
2017-09-29T19:36:59.870Z,60.40
2017-09-29T19:39:28.715Z,60.60
2017-09-29T19:41:58.141Z,60.80
2017-09-29T19:44:26.983Z,60.70
2017-09-29T19:46:56.604Z,61.20
2017-09-29T19:49:25.482Z,61.00
2017-09-29T19:51:54.349Z,61.10
2017-09-29T19:54:24.130Z,61.30
2017-09-29T19:56:52.998Z,61.40
2017-09-29T19:59:21.842Z,61.50
2017-09-29T20:01:51.596Z,61.60
2017-09-29T20:04:20.455Z,61.70
2017-09-29T20:06:49.310Z,61.90
2017-09-29T20:09:18.173Z,62.00
2017-09-29T20:11:47.031Z,62.10
2017-09-29T20:14:16.642Z,62.30
2017-09-29T20:16:45.493Z,62.20
2017-09-29T20:19:15.187Z,62.40
2017-09-29T20:21:45.084Z,62.50
2017-09-29T20:24:13.934Z,62.60
2017-09-29T20:26:42.782Z,62.80
2017-09-29T20:29:12.474Z,62.90
2017-09-29T20:31:41.321Z,62.80
2017-09-29T20:34:10.178Z,62.90
2017-09-29T20:36:39.039Z,63.00
2017-09-29T20:39:08.654Z,63.10
2017-09-29T20:41:37.491Z,63.10
2017-09-29T20:44:06.348Z,63.30
2017-09-29T20:46:39.001Z,63.60
2017-09-29T20:49:08.663Z,63.90
2017-09-29T20:51:37.605Z,63.90
2017-09-29T20:54:06.520Z,63.90
2017-09-29T20:56:35.386Z,64.00
2017-09-29T20:59:05.011Z,63.90
2017-09-29T21:01:33.851Z,63.90
2017-09-29T21:04:02.704Z,64.00
2017-09-29T21:06:31.600Z,64.00
2017-09-29T21:09:00.507Z,63.90
2017-09-29T21:11:31.215Z,63.90
2017-09-29T21:14:00.094Z,64.10
2017-09-29T21:16:29.764Z,64.00
2017-09-29T21:18:58.622Z,63.90
2017-09-29T21:21:27.470Z,63.90
2017-09-29T21:23:56.322Z,63.80
2017-09-29T21:26:25.191Z,63.80
2017-09-29T21:28:54.039Z,63.50
2017-09-29T21:31:23.476Z,63.40
2017-09-29T21:33:53.375Z,63.30
2017-09-29T21:36:22.233Z,63.30
2017-09-29T21:38:51.079Z,63.20
2017-09-29T21:41:19.964Z,63.10
2017-09-29T21:43:48.811Z,63.00
2017-09-29T21:46:17.663Z,62.90
2017-09-29T21:48:46.509Z,62.80
2017-09-29T21:51:16.120Z,62.80
2017-09-29T21:53:45.734Z,62.90
2017-09-29T21:56:14.656Z,62.90
2017-09-29T21:58:43.549Z,62.90
2017-09-29T22:01:12.935Z,62.70
2017-09-29T22:03:41.787Z,62.60
2017-09-29T22:06:10.651Z,62.30
2017-09-29T22:08:41.171Z,62.20
2017-09-29T22:11:10.019Z,62.00
2017-09-29T22:13:38.871Z,62.00
2017-09-29T22:16:07.733Z,61.90
2017-09-29T22:18:36.578Z,61.70
2017-09-29T22:21:05.961Z,61.80
2017-09-29T22:23:34.808Z,61.90
2017-09-29T22:26:03.665Z,61.90
2017-09-29T22:28:32.502Z,61.90
2017-09-29T22:31:01.341Z,61.80
2017-09-29T22:33:30.194Z,61.80
2017-09-29T22:35:59.052Z,61.80
2017-09-29T22:38:28.666Z,61.80
2017-09-29T22:40:57.516Z,61.60
2017-09-29T22:43:26.383Z,61.70
2017-09-29T22:45:55.238Z,61.70
2017-09-29T22:48:24.950Z,61.70
2017-09-29T22:50:53.825Z,61.70
2017-09-29T22:53:23.438Z,61.80
2017-09-29T22:55:52.296Z,61.70
2017-09-29T22:58:21.151Z,61.80
2017-09-29T23:00:50.002Z,61.80
2017-09-29T23:03:19.627Z,61.90
2017-09-29T23:05:48.479Z,61.80
2017-09-29T23:08:17.329Z,61.90
2017-09-29T23:10:46.175Z,61.90
2017-09-29T23:13:15.798Z,62.10
2017-09-29T23:15:45.425Z,62.20
2017-09-29T23:18:14.272Z,62.10
2017-09-29T23:20:43.110Z,62.30
2017-09-29T23:23:11.954Z,62.20
2017-09-29T23:25:40.806Z,62.20
2017-09-29T23:28:10.443Z,62.20
2017-09-29T23:30:39.290Z,62.10
2017-09-29T23:33:08.142Z,62.10
2017-09-29T23:35:37.007Z,62.10
2017-09-29T23:38:05.902Z,62.80
2017-09-29T23:40:34.851Z,62.30
2017-09-29T23:43:03.694Z,62.30
2017-09-29T23:45:32.785Z,62.50
2017-09-29T23:48:01.994Z,62.30
2017-09-29T23:50:30.844Z,62.30
2017-09-29T23:52:59.716Z,62.40
2017-09-29T23:55:28.561Z,62.50
2017-09-29T23:57:58.057Z,62.50
